sensor_id;sensor_type;location;lat;lon;timestamp;pressure;altitude;pressure_sealevel;temperature;humidity
84890;BME280;75153;52.222;5.160;2024-02-26T00:01:52;100014.06;;;6.20;77.76
84890;BME280;75153;52.222;5.160;2024-02-26T00:04:17;100015.09;;;6.19;78.00
84890;BME280;75153;52.222;5.160;2024-02-26T00:06:43;100012.75;;;6.18;77.97
84890;BME280;75153;52.222;5.160;2024-02-26T00:09:09;100011.97;;;6.17;78.05
84890;BME280;75153;52.222;5.160;2024-02-26T00:11:37;100011.16;;;6.17;78.22
84890;BME280;75153;52.222;5.160;2024-02-26T00:14:03;100014.06;;;6.15;78.26
84890;BME280;75153;52.222;5.160;2024-02-26T00:16:29;100017.47;;;6.16;78.18
84890;BME280;75153;52.222;5.160;2024-02-26T00:18:55;100013.00;;;6.16;77.98
84890;BME280;75153;52.222;5.160;2024-02-26T00:21:20;100019.03;;;6.12;78.25
84890;BME280;75153;52.222;5.160;2024-02-26T00:23:46;100022.63;;;6.05;78.29
84890;BME280;75153;52.222;5.160;2024-02-26T00:26:12;100021.34;;;6.03;78.30
84890;BME280;75153;52.222;5.160;2024-02-26T00:28:37;100019.78;;;6.07;77.99
84890;BME280;75153;52.222;5.160;2024-02-26T00:31:03;100022.13;;;6.03;78.29
84890;BME280;75153;52.222;5.160;2024-02-26T00:33:28;100024.44;;;6.00;78.35
84890;BME280;75153;52.222;5.160;2024-02-26T00:35:54;100021.03;;;5.99;78.35
84890;BME280;75153;52.222;5.160;2024-02-26T00:38:19;100022.34;;;5.97;78.19
84890;BME280;75153;52.222;5.160;2024-02-26T00:40:45;100026.78;;;5.96;78.38
84890;BME280;75153;52.222;5.160;2024-02-26T00:43:10;100032.56;;;5.98;78.11
84890;BME280;75153;52.222;5.160;2024-02-26T00:45:36;100034.13;;;5.99;78.38
84890;BME280;75153;52.222;5.160;2024-02-26T00:48:01;100031.69;;;5.88;78.72
84890;BME280;75153;52.222;5.160;2024-02-26T00:50:31;100040.63;;;5.92;78.59
84890;BME280;75153;52.222;5.160;2024-02-26T00:52:57;100030.66;;;5.89;78.23
84890;BME280;75153;52.222;5.160;2024-02-26T00:55:22;100032.44;;;5.83;78.55
84890;BME280;75153;52.222;5.160;2024-02-26T00:57:48;100032.22;;;5.90;78.07
84890;BME280;75153;52.222;5.160;2024-02-26T01:00:13;100023.84;;;5.88;78.34
84890;BME280;75153;52.222;5.160;2024-02-26T01:02:39;100029.34;;;5.91;78.54
84890;BME280;75153;52.222;5.160;2024-02-26T01:05:05;100033.81;;;5.91;78.54
84890;BME280;75153;52.222;5.160;2024-02-26T01:07:31;100027.22;;;5.83;78.77
84890;BME280;75153;52.222;5.160;2024-02-26T01:10:01;100035.59;;;5.85;78.33
84890;BME280;75153;52.222;5.160;2024-02-26T01:12:27;100034.78;;;5.79;78.50
84890;BME280;75153;52.222;5.160;2024-02-26T01:14:52;100029.84;;;5.88;78.22
84890;BME280;75153;52.222;5.160;2024-02-26T01:17:18;100029.84;;;5.88;78.12
84890;BME280;75153;52.222;5.160;2024-02-26T01:19:43;100034.28;;;5.82;78.65
84890;BME280;75153;52.222;5.160;2024-02-26T01:22:09;100029.81;;;5.78;78.54
84890;BME280;75153;52.222;5.160;2024-02-26T01:24:34;100036.88;;;5.77;78.28
84890;BME280;75153;52.222;5.160;2024-02-26T01:27:00;100034.25;;;5.77;78.64
84890;BME280;75153;52.222;5.160;2024-02-26T01:29:25;100033.16;;;5.68;79.23
84890;BME280;75153;52.222;5.160;2024-02-26T01:31:51;100047.31;;;5.77;78.73
84890;BME280;75153;52.222;5.160;2024-02-26T01:34:16;100035.31;;;5.76;78.46
84890;BME280;75153;52.222;5.160;2024-02-26T01:36:43;100038.66;;;5.72;78.98
84890;BME280;75153;52.222;5.160;2024-02-26T01:39:09;100030.81;;;5.72;78.92
84890;BME280;75153;52.222;5.160;2024-02-26T01:41:38;100040.81;;;5.75;78.64
84890;BME280;75153;52.222;5.160;2024-02-26T01:44:03;100040.75;;;5.70;78.72
84890;BME280;75153;52.222;5.160;2024-02-26T01:46:29;100036.03;;;5.72;78.76
84890;BME280;75153;52.222;5.160;2024-02-26T01:48:56;100033.69;;;5.70;78.93
84890;BME280;75153;52.222;5.160;2024-02-26T01:51:22;100037.88;;;5.71;79.02
84890;BME280;75153;52.222;5.160;2024-02-26T01:53:48;100034.47;;;5.71;78.51
84890;BME280;75153;52.222;5.160;2024-02-26T01:56:15;100028.19;;;5.67;78.72
84890;BME280;75153;52.222;5.160;2024-02-26T01:58:42;100031.09;;;5.70;78.96
84890;BME280;75153;52.222;5.160;2024-02-26T02:01:09;100033.16;;;5.68;78.63
84890;BME280;75153;52.222;5.160;2024-02-26T02:03:35;100044.66;;;5.67;78.70
84890;BME280;75153;52.222;5.160;2024-02-26T02:06:02;100042.88;;;5.73;78.72
84890;BME280;75153;52.222;5.160;2024-02-26T02:08:27;100043.06;;;5.66;78.70
84890;BME280;75153;52.222;5.160;2024-02-26T02:10:53;100051.22;;;5.70;78.29
84890;BME280;75153;52.222;5.160;2024-02-26T02:13:18;100052.78;;;5.71;78.26
84890;BME280;75153;52.222;5.160;2024-02-26T02:15:43;100046.22;;;5.68;78.18
84890;BME280;75153;52.222;5.160;2024-02-26T02:18:09;100053.53;;;5.66;78.44
84890;BME280;75153;52.222;5.160;2024-02-26T02:20:35;100060.84;;;5.59;78.71
84890;BME280;75153;52.222;5.160;2024-02-26T02:23:02;100056.94;;;5.61;78.53
84890;BME280;75153;52.222;5.160;2024-02-26T02:25:27;100062.94;;;5.62;78.72
84890;BME280;75153;52.222;5.160;2024-02-26T02:27:54;100058.75;;;5.61;78.63
84890;BME280;75153;52.222;5.160;2024-02-26T02:30:29;100064.00;;;5.66;78.56
84890;BME280;75153;52.222;5.160;2024-02-26T02:32:55;100061.09;;;5.62;78.65
84890;BME280;75153;52.222;5.160;2024-02-26T02:35:20;100071.28;;;5.59;78.66
84890;BME280;75153;52.222;5.160;2024-02-26T02:37:46;100066.84;;;5.59;78.53
84890;BME280;75153;52.222;5.160;2024-02-26T02:40:11;100066.09;;;5.64;78.48
84890;BME280;75153;52.222;5.160;2024-02-26T02:42:37;100071.88;;;5.71;78.13
84890;BME280;75153;52.222;5.160;2024-02-26T02:45:02;100071.09;;;5.71;78.24
84890;BME280;75153;52.222;5.160;2024-02-26T02:47:28;100057.75;;;5.67;78.17
84890;BME280;75153;52.222;5.160;2024-02-26T02:49:53;100072.66;;;5.67;77.93
84890;BME280;75153;52.222;5.160;2024-02-26T02:52:18;100070.03;;;5.67;78.12
84890;BME280;75153;52.222;5.160;2024-02-26T02:54:44;100070.31;;;5.70;77.74
84890;BME280;75153;52.222;5.160;2024-02-26T02:57:09;100073.22;;;5.74;77.81
84890;BME280;75153;52.222;5.160;2024-02-26T02:59:35;100086.25;;;5.69;77.98
84890;BME280;75153;52.222;5.160;2024-02-26T03:02:01;100080.28;;;5.73;78.10
84890;BME280;75153;52.222;5.160;2024-02-26T03:04:26;100081.84;;;5.74;77.78
84890;BME280;75153;52.222;5.160;2024-02-26T03:06:52;100088.91;;;5.74;77.27
84890;BME280;75153;52.222;5.160;2024-02-26T03:09:17;100092.81;;;5.71;77.81
84890;BME280;75153;52.222;5.160;2024-02-26T03:11:42;100091.78;;;5.77;77.56
84890;BME280;75153;52.222;5.160;2024-02-26T03:14:08;100100.19;;;5.79;77.30
84890;BME280;75153;52.222;5.160;2024-02-26T03:16:35;100111.44;;;5.80;77.45
84890;BME280;75153;52.222;5.160;2024-02-26T03:19:00;100111.94;;;5.77;77.79
84890;BME280;75153;52.222;5.160;2024-02-26T03:21:27;100110.88;;;5.73;77.73
84890;BME280;75153;52.222;5.160;2024-02-26T03:23:52;100112.72;;;5.77;77.75
84890;BME280;75153;52.222;5.160;2024-02-26T03:26:18;100114.78;;;5.70;77.94
84890;BME280;75153;52.222;5.160;2024-02-26T03:28:44;100115.88;;;5.79;77.85
84890;BME280;75153;52.222;5.160;2024-02-26T03:31:09;100128.94;;;5.74;77.31
84890;BME280;75153;52.222;5.160;2024-02-26T03:33:35;100124.78;;;5.78;77.32
84890;BME280;75153;52.222;5.160;2024-02-26T03:36:01;100117.97;;;5.77;77.41
84890;BME280;75153;52.222;5.160;2024-02-26T03:38:28;100119.56;;;5.78;77.62
84890;BME280;75153;52.222;5.160;2024-02-26T03:40:54;100123.19;;;5.77;77.34
84890;BME280;75153;52.222;5.160;2024-02-26T03:43:19;100117.72;;;5.79;77.55
84890;BME280;75153;52.222;5.160;2024-02-26T03:45:44;100128.44;;;5.77;77.44
84890;BME280;75153;52.222;5.160;2024-02-26T03:48:10;100124.25;;;5.76;77.55
84890;BME280;75153;52.222;5.160;2024-02-26T03:50:35;100124.81;;;5.83;77.01
84890;BME280;75153;52.222;5.160;2024-02-26T03:53:00;100130.25;;;5.77;77.40
84890;BME280;75153;52.222;5.160;2024-02-26T03:55:26;100138.59;;;5.74;77.67
84890;BME280;75153;52.222;5.160;2024-02-26T03:57:52;100139.38;;;5.69;77.82
84890;BME280;75153;52.222;5.160;2024-02-26T04:00:17;100142.00;;;5.74;77.73
84890;BME280;75153;52.222;5.160;2024-02-26T04:02:43;100146.22;;;5.75;77.53
84890;BME280;75153;52.222;5.160;2024-02-26T04:05:11;100151.44;;;5.75;77.51
84890;BME280;75153;52.222;5.160;2024-02-26T04:07:37;100141.50;;;5.72;77.77
84890;BME280;75153;52.222;5.160;2024-02-26T04:10:02;100151.94;;;5.72;77.68
84890;BME280;75153;52.222;5.160;2024-02-26T04:12:31;100153.81;;;5.77;77.79
84890;BME280;75153;52.222;5.160;2024-02-26T04:14:56;100159.03;;;5.77;77.64
84890;BME280;75153;52.222;5.160;2024-02-26T04:17:21;100163.53;;;5.81;77.82
84890;BME280;75153;52.222;5.160;2024-02-26T04:19:47;100166.38;;;5.80;77.60
84890;BME280;75153;52.222;5.160;2024-02-26T04:22:12;100164.81;;;5.79;77.70
84890;BME280;75153;52.222;5.160;2024-02-26T04:24:37;100172.38;;;5.75;77.83
84890;BME280;75153;52.222;5.160;2024-02-26T04:27:03;100175.00;;;5.75;78.01
84890;BME280;75153;52.222;5.160;2024-02-26T04:29:28;100173.06;;;5.66;78.28
84890;BME280;75153;52.222;5.160;2024-02-26T04:31:54;100182.00;;;5.70;77.82
84890;BME280;75153;52.222;5.160;2024-02-26T04:34:19;100178.31;;;5.66;78.34
84890;BME280;75153;52.222;5.160;2024-02-26T04:36:44;100182.53;;;5.72;77.89
84890;BME280;75153;52.222;5.160;2024-02-26T04:39:10;100183.00;;;5.63;77.77
84890;BME280;75153;52.222;5.160;2024-02-26T04:41:35;100192.16;;;5.66;78.00
84890;BME280;75153;52.222;5.160;2024-02-26T04:44:01;100184.81;;;5.63;78.24
84890;BME280;75153;52.222;5.160;2024-02-26T04:46:27;100194.50;;;5.62;78.25
84890;BME280;75153;52.222;5.160;2024-02-26T04:48:53;100186.91;;;5.61;78.41
84890;BME280;75153;52.222;5.160;2024-02-26T04:51:19;100191.66;;;5.64;78.26
84890;BME280;75153;52.222;5.160;2024-02-26T04:53:44;100194.09;;;5.49;78.72
84890;BME280;75153;52.222;5.160;2024-02-26T04:56:10;100189.47;;;5.56;78.38
84890;BME280;75153;52.222;5.160;2024-02-26T04:58:35;100193.09;;;5.50;78.68
84890;BME280;75153;52.222;5.160;2024-02-26T05:01:01;100184.75;;;5.53;78.40
84890;BME280;75153;52.222;5.160;2024-02-26T05:03:26;100185.25;;;5.50;78.68
84890;BME280;75153;52.222;5.160;2024-02-26T05:05:52;100185.53;;;5.53;78.69
84890;BME280;75153;52.222;5.160;2024-02-26T05:08:17;100188.38;;;5.52;78.72
84890;BME280;75153;52.222;5.160;2024-02-26T05:10:45;100193.09;;;5.50;78.84
84890;BME280;75153;52.222;5.160;2024-02-26T05:13:10;100206.16;;;5.50;78.44
84890;BME280;75153;52.222;5.160;2024-02-26T05:15:36;100194.66;;;5.51;78.74
84890;BME280;75153;52.222;5.160;2024-02-26T05:18:02;100200.44;;;5.53;78.43
84890;BME280;75153;52.222;5.160;2024-02-26T05:20:28;100199.84;;;5.46;78.80
84890;BME280;75153;52.222;5.160;2024-02-26T05:22:53;100198.31;;;5.50;78.81
84890;BME280;75153;52.222;5.160;2024-02-26T05:25:19;100205.00;;;5.40;79.35
84890;BME280;75153;52.222;5.160;2024-02-26T05:27:44;100207.94;;;5.44;79.12
84890;BME280;75153;52.222;5.160;2024-02-26T05:30:10;100213.16;;;5.44;79.21
84890;BME280;75153;52.222;5.160;2024-02-26T05:32:36;100216.03;;;5.43;79.28
84890;BME280;75153;52.222;5.160;2024-02-26T05:35:02;100216.31;;;5.46;79.19
84890;BME280;75153;52.222;5.160;2024-02-26T05:37:29;100220.75;;;5.46;79.13
84890;BME280;75153;52.222;5.160;2024-02-26T05:39:54;100217.63;;;5.44;79.28
84890;BME280;75153;52.222;5.160;2024-02-26T05:42:20;100221.81;;;5.45;79.46
84890;BME280;75153;52.222;5.160;2024-02-26T05:44:45;100212.84;;;5.40;79.68
84890;BME280;75153;52.222;5.160;2024-02-26T05:47:11;100221.84;;;5.50;79.46
84890;BME280;75153;52.222;5.160;2024-02-26T05:49:36;100221.84;;;5.50;79.40
84890;BME280;75153;52.222;5.160;2024-02-26T05:52:02;100220.75;;;5.46;79.68
84890;BME280;75153;52.222;5.160;2024-02-26T05:54:27;100224.41;;;5.45;79.77
84890;BME280;75153;52.222;5.160;2024-02-26T05:56:52;100228.38;;;5.47;79.65
84890;BME280;75153;52.222;5.160;2024-02-26T05:59:18;100235.44;;;5.52;79.58
84890;BME280;75153;52.222;5.160;2024-02-26T06:01:43;100236.56;;;5.56;79.32
84890;BME280;75153;52.222;5.160;2024-02-26T06:04:09;100236.84;;;5.59;79.39
84890;BME280;75153;52.222;5.160;2024-02-26T06:06:34;100233.81;;;5.46;80.31
84890;BME280;75153;52.222;5.160;2024-02-26T06:08:59;100238.56;;;5.49;80.03
84890;BME280;75153;52.222;5.160;2024-02-26T06:11:25;100246.22;;;5.55;79.30
84890;BME280;75153;52.222;5.160;2024-02-26T06:13:50;100256.13;;;5.53;79.75
84890;BME280;75153;52.222;5.160;2024-02-26T06:16:15;100265.81;;;5.53;79.93
84890;BME280;75153;52.222;5.160;2024-02-26T06:18:41;100270.50;;;5.51;79.87
84890;BME280;75153;52.222;5.160;2024-02-26T06:21:10;100274.00;;;5.61;79.44
84890;BME280;75153;52.222;5.160;2024-02-26T06:23:38;100285.13;;;5.52;80.12
84890;BME280;75153;52.222;5.160;2024-02-26T06:26:04;100269.50;;;5.57;79.76
84890;BME280;75153;52.222;5.160;2024-02-26T06:28:30;100277.34;;;5.57;79.82
84890;BME280;75153;52.222;5.160;2024-02-26T06:30:57;100283.84;;;5.54;79.81
84890;BME280;75153;52.222;5.160;2024-02-26T06:33:22;100285.94;;;5.52;79.75
84890;BME280;75153;52.222;5.160;2024-02-26T06:35:48;100288.56;;;5.52;80.01
84890;BME280;75153;52.222;5.160;2024-02-26T06:38:13;100292.50;;;5.55;80.21
84890;BME280;75153;52.222;5.160;2024-02-26T06:40:39;100291.47;;;5.56;79.82
84890;BME280;75153;52.222;5.160;2024-02-26T06:43:04;100283.00;;;5.49;80.70
84890;BME280;75153;52.222;5.160;2024-02-26T06:45:30;100289.59;;;5.51;80.62
84890;BME280;75153;52.222;5.160;2024-02-26T06:47:56;100291.69;;;5.54;80.12
84890;BME280;75153;52.222;5.160;2024-02-26T06:50:21;100295.56;;;5.47;80.46
84890;BME280;75153;52.222;5.160;2024-02-26T06:52:47;100301.31;;;5.49;80.40
84890;BME280;75153;52.222;5.160;2024-02-26T06:55:12;100306.03;;;5.47;80.81
84890;BME280;75153;52.222;5.160;2024-02-26T06:57:38;100308.16;;;5.50;80.34
84890;BME280;75153;52.222;5.160;2024-02-26T07:00:04;100306.50;;;5.44;81.12
84890;BME280;75153;52.222;5.160;2024-02-26T07:02:30;100321.09;;;5.39;81.14
84890;BME280;75153;52.222;5.160;2024-02-26T07:04:56;100325.59;;;5.44;80.96
84890;BME280;75153;52.222;5.160;2024-02-26T07:07:26;100320.13;;;5.46;80.55
84890;BME280;75153;52.222;5.160;2024-02-26T07:09:51;100336.28;;;5.43;80.98
84890;BME280;75153;52.222;5.160;2024-02-26T07:12:16;100332.03;;;5.36;81.26
84890;BME280;75153;52.222;5.160;2024-02-26T07:14:42;100336.22;;;5.37;81.32
84890;BME280;75153;52.222;5.160;2024-02-26T07:17:08;100343.06;;;5.38;81.37
84890;BME280;75153;52.222;5.160;2024-02-26T07:19:34;100344.41;;;5.41;81.14
84890;BME280;75153;52.222;5.160;2024-02-26T07:21:59;100353.59;;;5.44;80.92
84890;BME280;75153;52.222;5.160;2024-02-26T07:24:27;100354.03;;;5.40;81.10
84890;BME280;75153;52.222;5.160;2024-02-26T07:26:52;100352.47;;;5.39;81.34
84890;BME280;75153;52.222;5.160;2024-02-26T07:29:19;100358.81;;;5.44;81.17
84890;BME280;75153;52.222;5.160;2024-02-26T07:31:45;100360.38;;;5.45;80.57
84890;BME280;75153;52.222;5.160;2024-02-26T07:34:10;100365.00;;;5.37;81.48
84890;BME280;75153;52.222;5.160;2024-02-26T07:36:36;100363.22;;;5.43;81.00
84890;BME280;75153;52.222;5.160;2024-02-26T07:39:01;100373.69;;;5.43;81.19
84890;BME280;75153;52.222;5.160;2024-02-26T07:41:26;100374.72;;;5.42;81.04
84890;BME280;75153;52.222;5.160;2024-02-26T07:43:52;100373.16;;;5.41;81.13
84890;BME280;75153;52.222;5.160;2024-02-26T07:46:17;100374.16;;;5.40;80.80
84890;BME280;75153;52.222;5.160;2024-02-26T07:48:43;100372.66;;;5.44;80.82
84890;BME280;75153;52.222;5.160;2024-02-26T07:51:11;100390.97;;;5.44;81.06
84890;BME280;75153;52.222;5.160;2024-02-26T07:53:37;100384.16;;;5.43;80.58
84890;BME280;75153;52.222;5.160;2024-02-26T07:56:02;100383.28;;;5.37;81.05
84890;BME280;75153;52.222;5.160;2024-02-26T07:58:28;100386.09;;;5.31;81.45
84890;BME280;75153;52.222;5.160;2024-02-26T08:00:53;100391.09;;;5.32;81.18
84890;BME280;75153;52.222;5.160;2024-02-26T08:03:19;100396.28;;;5.49;80.70
84890;BME280;75153;52.222;5.160;2024-02-26T08:05:44;100401.44;;;5.44;80.61
84890;BME280;75153;52.222;5.160;2024-02-26T08:08:10;100399.91;;;5.48;80.27
84890;BME280;75153;52.222;5.160;2024-02-26T08:10:35;100412.88;;;5.38;80.43
84890;BME280;75153;52.222;5.160;2024-02-26T08:13:00;100416.34;;;5.44;80.82
84890;BME280;75153;52.222;5.160;2024-02-26T08:15:34;100411.41;;;5.47;80.46
84890;BME280;75153;52.222;5.160;2024-02-26T08:18:03;100419.19;;;5.42;80.80
84890;BME280;75153;52.222;5.160;2024-02-26T08:20:29;100414.44;;;5.39;80.55
84890;BME280;75153;52.222;5.160;2024-02-26T08:22:55;100425.97;;;5.43;80.49
84890;BME280;75153;52.222;5.160;2024-02-26T08:25:21;100421.72;;;5.37;80.67
84890;BME280;75153;52.222;5.160;2024-02-26T08:27:46;100416.34;;;5.44;80.61
84890;BME280;75153;52.222;5.160;2024-02-26T08:30:14;100421.56;;;5.44;80.63
84890;BME280;75153;52.222;5.160;2024-02-26T08:32:45;100440.41;;;5.46;79.99
84890;BME280;75153;52.222;5.160;2024-02-26T08:35:10;100428.38;;;5.45;80.06
84890;BME280;75153;52.222;5.160;2024-02-26T08:37:36;100432.31;;;5.47;80.14
84890;BME280;75153;52.222;5.160;2024-02-26T08:40:01;100441.19;;;5.46;80.11
84890;BME280;75153;52.222;5.160;2024-02-26T08:42:29;100450.75;;;5.35;80.57
84890;BME280;75153;52.222;5.160;2024-02-26T08:44:54;100438.34;;;5.48;80.02
84890;BME280;75153;52.222;5.160;2024-02-26T08:47:20;100459.75;;;5.45;79.90
84890;BME280;75153;52.222;5.160;2024-02-26T08:49:46;100448.56;;;5.49;80.09
84890;BME280;75153;52.222;5.160;2024-02-26T08:52:11;100450.38;;;5.49;79.71
84890;BME280;75153;52.222;5.160;2024-02-26T08:54:37;100461.94;;;5.53;79.88
84890;BME280;75153;52.222;5.160;2024-02-26T08:57:02;100462.44;;;5.50;79.45
84890;BME280;75153;52.222;5.160;2024-02-26T08:59:28;100471.06;;;5.50;79.68
84890;BME280;75153;52.222;5.160;2024-02-26T09:01:54;100471.66;;;5.57;79.50
84890;BME280;75153;52.222;5.160;2024-02-26T09:04:19;100467.78;;;5.60;79.33
84890;BME280;75153;52.222;5.160;2024-02-26T09:06:45;100468.34;;;5.62;79.48
84890;BME280;75153;52.222;5.160;2024-02-26T09:09:10;100486.16;;;5.65;79.39
84890;BME280;75153;52.222;5.160;2024-02-26T09:11:36;100481.97;;;5.64;79.25
84890;BME280;75153;52.222;5.160;2024-02-26T09:14:01;100482.47;;;5.61;79.46
84890;BME280;75153;52.222;5.160;2024-02-26T09:16:27;100494.31;;;5.69;79.21
84890;BME280;75153;52.222;5.160;2024-02-26T09:18:52;100497.75;;;5.69;79.39
84890;BME280;75153;52.222;5.160;2024-02-26T09:21:17;100486.84;;;5.55;79.28
84890;BME280;75153;52.222;5.160;2024-02-26T09:23:49;100495.84;;;5.65;78.84
84890;BME280;75153;52.222;5.160;2024-02-26T09:26:14;100499.63;;;5.74;78.75
84890;BME280;75153;52.222;5.160;2024-02-26T09:28:40;100506.00;;;5.61;78.76
84890;BME280;75153;52.222;5.160;2024-02-26T09:31:05;100506.59;;;5.68;78.87
84890;BME280;75153;52.222;5.160;2024-02-26T09:33:32;100508.53;;;5.56;78.99
84890;BME280;75153;52.222;5.160;2024-02-26T09:35:57;100517.06;;;5.68;79.03
84890;BME280;75153;52.222;5.160;2024-02-26T09:38:23;100521.66;;;5.78;78.71
84890;BME280;75153;52.222;5.160;2024-02-26T09:40:49;100523.41;;;5.72;78.99
84890;BME280;75153;52.222;5.160;2024-02-26T09:43:17;100530.78;;;5.75;78.59
84890;BME280;75153;52.222;5.160;2024-02-26T09:45:43;100531.31;;;5.77;78.73
84890;BME280;75153;52.222;5.160;2024-02-26T09:48:09;100533.78;;;5.84;78.14
84890;BME280;75153;52.222;5.160;2024-02-26T09:50:36;100536.41;;;5.84;78.47
84890;BME280;75153;52.222;5.160;2024-02-26T09:53:04;100540.03;;;5.83;78.74
84890;BME280;75153;52.222;5.160;2024-02-26T09:55:30;100537.03;;;5.74;79.29
84890;BME280;75153;52.222;5.160;2024-02-26T09:57:56;100544.81;;;5.86;78.41
84890;BME280;75153;52.222;5.160;2024-02-26T10:00:23;100546.31;;;5.82;78.49
84890;BME280;75153;52.222;5.160;2024-02-26T10:02:53;100558.91;;;5.85;78.50
84890;BME280;75153;52.222;5.160;2024-02-26T10:05:21;100559.38;;;5.82;79.31
84890;BME280;75153;52.222;5.160;2024-02-26T10:07:52;100565.88;;;5.79;79.44
84890;BME280;75153;52.222;5.160;2024-02-26T10:10:18;100564.69;;;5.87;78.82
84890;BME280;75153;52.222;5.160;2024-02-26T10:12:44;100565.09;;;5.79;79.41
84890;BME280;75153;52.222;5.160;2024-02-26T10:15:09;100571.28;;;5.90;78.64
84890;BME280;75153;52.222;5.160;2024-02-26T10:17:35;100573.25;;;5.82;79.29
84890;BME280;75153;52.222;5.160;2024-02-26T10:20:12;100570.03;;;5.75;79.92
84890;BME280;75153;52.222;5.160;2024-02-26T10:22:40;100574.53;;;5.80;79.38
84890;BME280;75153;52.222;5.160;2024-02-26T10:25:06;100576.19;;;5.86;79.71
84890;BME280;75153;52.222;5.160;2024-02-26T10:27:33;100583.63;;;5.77;80.37
84890;BME280;75153;52.222;5.160;2024-02-26T10:30:02;100591.94;;;5.91;79.12
84890;BME280;75153;52.222;5.160;2024-02-26T10:32:28;100586.97;;;5.90;79.65
84890;BME280;75153;52.222;5.160;2024-02-26T10:34:56;100598.56;;;5.94;79.83
84890;BME280;75153;52.222;5.160;2024-02-26T10:37:22;100603.38;;;5.85;79.74
84890;BME280;75153;52.222;5.160;2024-02-26T10:39:48;100602.13;;;5.88;79.85
84890;BME280;75153;52.222;5.160;2024-02-26T10:42:13;100604.91;;;5.81;79.97
84890;BME280;75153;52.222;5.160;2024-02-26T10:44:40;100609.34;;;5.80;80.59
84890;BME280;75153;52.222;5.160;2024-02-26T10:47:07;100609.97;;;5.88;80.12
84890;BME280;75153;52.222;5.160;2024-02-26T10:49:35;100614.41;;;5.87;79.93
84890;BME280;75153;52.222;5.160;2024-02-26T10:52:01;100616.00;;;5.88;80.23
84890;BME280;75153;52.222;5.160;2024-02-26T10:54:29;100623.84;;;5.88;80.11
84890;BME280;75153;52.222;5.160;2024-02-26T10:56:58;100628.84;;;5.90;80.48
84890;BME280;75153;52.222;5.160;2024-02-26T10:59:24;100631.31;;;5.96;80.19
84890;BME280;75153;52.222;5.160;2024-02-26T11:01:50;100631.56;;;5.95;80.58
84890;BME280;75153;52.222;5.160;2024-02-26T11:04:16;100643.44;;;6.02;80.42
84890;BME280;75153;52.222;5.160;2024-02-26T11:06:43;100637.81;;;5.94;80.10
84890;BME280;75153;52.222;5.160;2024-02-26T11:09:12;100636.44;;;5.91;80.99
84890;BME280;75153;52.222;5.160;2024-02-26T11:11:41;100651.53;;;6.01;80.73
84890;BME280;75153;52.222;5.160;2024-02-26T11:14:08;100647.28;;;5.95;80.81
84890;BME280;75153;52.222;5.160;2024-02-26T11:16:35;100651.16;;;6.09;80.14
84890;BME280;75153;52.222;5.160;2024-02-26T11:19:02;100662.72;;;6.13;79.84
84890;BME280;75153;52.222;5.160;2024-02-26T11:21:28;100666.28;;;6.07;80.59
84890;BME280;75153;52.222;5.160;2024-02-26T11:24:06;100663.91;;;6.05;80.31
84890;BME280;75153;52.222;5.160;2024-02-26T11:26:34;100665.41;;;6.18;79.71
84890;BME280;75153;52.222;5.160;2024-02-26T11:29:02;100675.63;;;6.20;79.86
84890;BME280;75153;52.222;5.160;2024-02-26T11:31:28;100677.03;;;6.27;79.74
84890;BME280;75153;52.222;5.160;2024-02-26T11:33:55;100674.69;;;6.26;79.86
84890;BME280;75153;52.222;5.160;2024-02-26T11:36:23;100687.38;;;6.34;79.35
84890;BME280;75153;52.222;5.160;2024-02-26T11:38:49;100680.22;;;6.29;79.40
84890;BME280;75153;52.222;5.160;2024-02-26T11:41:18;100681.78;;;6.30;78.81
84890;BME280;75153;52.222;5.160;2024-02-26T11:44:01;100682.91;;;6.35;79.10
84890;BME280;75153;52.222;5.160;2024-02-26T11:46:30;100688.16;;;6.35;78.60
84890;BME280;75153;52.222;5.160;2024-02-26T11:49:01;100683.78;;;6.40;78.55
84890;BME280;75153;52.222;5.160;2024-02-26T11:51:28;100682.72;;;6.41;78.84
84890;BME280;75153;52.222;5.160;2024-02-26T11:53:57;100697.47;;;6.47;78.26
84890;BME280;75153;52.222;5.160;2024-02-26T11:56:24;100695.13;;;6.46;78.60
84890;BME280;75153;52.222;5.160;2024-02-26T11:58:57;100699.09;;;6.48;78.39
84890;BME280;75153;52.222;5.160;2024-02-26T12:04:11;100692.94;;;6.60;78.01
84890;BME280;75153;52.222;5.160;2024-02-26T12:06:46;100694.25;;;6.62;77.42
84890;BME280;75153;52.222;5.160;2024-02-26T12:09:12;100700.69;;;6.71;77.10
84890;BME280;75153;52.222;5.160;2024-02-26T12:11:39;100704.56;;;6.69;77.33
84890;BME280;75153;52.222;5.160;2024-02-26T12:14:09;100708.84;;;6.75;77.40
84890;BME280;75153;52.222;5.160;2024-02-26T12:16:38;100710.25;;;6.83;76.57
84890;BME280;75153;52.222;5.160;2024-02-26T12:19:08;100719.03;;;6.71;76.80
84890;BME280;75153;52.222;5.160;2024-02-26T12:21:35;100714.28;;;6.68;76.81
84890;BME280;75153;52.222;5.160;2024-02-26T12:24:14;100720.41;;;6.79;77.13
84890;BME280;75153;52.222;5.160;2024-02-26T12:26:43;100722.81;;;6.81;77.23
84890;BME280;75153;52.222;5.160;2024-02-26T12:29:09;100724.94;;;6.84;76.64
84890;BME280;75153;52.222;5.160;2024-02-26T12:31:35;100726.09;;;6.93;76.44
84890;BME280;75153;52.222;5.160;2024-02-26T12:34:04;100724.22;;;6.88;76.05
84890;BME280;75153;52.222;5.160;2024-02-26T12:36:30;100725.09;;;6.99;76.10
84890;BME280;75153;52.222;5.160;2024-02-26T12:38:56;100726.09;;;6.93;75.63
84890;BME280;75153;52.222;5.160;2024-02-26T12:41:22;100734.03;;;6.98;74.84
84890;BME280;75153;52.222;5.160;2024-02-26T12:43:48;100733.44;;;6.91;75.52
84890;BME280;75153;52.222;5.160;2024-02-26T12:46:13;100732.44;;;6.97;75.50
84890;BME280;75153;52.222;5.160;2024-02-26T12:48:43;100740.25;;;6.92;75.93
84890;BME280;75153;52.222;5.160;2024-02-26T12:51:10;100747.69;;;7.00;75.46
84890;BME280;75153;52.222;5.160;2024-02-26T12:53:38;100759.44;;;6.97;75.78
84890;BME280;75153;52.222;5.160;2024-02-26T12:56:06;100762.63;;;7.00;75.92
84890;BME280;75153;52.222;5.160;2024-02-26T12:58:33;100764.69;;;6.97;76.05